sensor_id;sensor_type;location;lat;lon;timestamp;P1;durP1;ratioP1;P2;durP2;ratioP2
10479;SDS011;12789;42.610;23.040;2022-09-20T00:01:25;0.83;;;0.83;;
10479;SDS011;12789;42.610;23.040;2022-09-20T00:03:54;0.90;;;0.90;;
10479;SDS011;12789;42.610;23.040;2022-09-20T00:06:24;0.80;;;0.80;;
10479;SDS011;12789;42.610;23.040;2022-09-20T00:08:52;1.00;;;1.00;;
10479;SDS011;12789;42.610;23.040;2022-09-20T00:11:22;0.93;;;0.93;;
10479;SDS011;12789;42.610;23.040;2022-09-20T00:13:52;1.20;;;1.07;;
10479;SDS011;12789;42.610;23.040;2022-09-20T00:16:21;2.20;;;0.90;;
10479;SDS011;12789;42.610;23.040;2022-09-20T00:18:50;0.87;;;0.87;;
10479;SDS011;12789;42.610;23.040;2022-09-20T00:21:20;1.00;;;1.00;;
10479;SDS011;12789;42.610;23.040;2022-09-20T00:23:48;0.90;;;0.90;;
10479;SDS011;12789;42.610;23.040;2022-09-20T00:26:15;1.70;;;1.20;;
10479;SDS011;12789;42.610;23.040;2022-09-20T00:28:44;1.47;;;1.20;;
10479;SDS011;12789;42.610;23.040;2022-09-20T00:31:12;0.90;;;0.90;;
10479;SDS011;12789;42.610;23.040;2022-09-20T00:33:40;1.00;;;1.00;;
10479;SDS011;12789;42.610;23.040;2022-09-20T00:36:24;1.17;;;1.17;;
10479;SDS011;12789;42.610;23.040;2022-09-20T00:38:54;1.40;;;1.30;;
10479;SDS011;12789;42.610;23.040;2022-09-20T00:41:21;1.27;;;1.20;;
10479;SDS011;12789;42.610;23.040;2022-09-20T00:43:51;0.83;;;0.83;;
10479;SDS011;12789;42.610;23.040;2022-09-20T00:46:20;0.83;;;0.83;;
10479;SDS011;12789;42.610;23.040;2022-09-20T00:48:50;0.80;;;0.80;;
10479;SDS011;12789;42.610;23.040;2022-09-20T00:51:23;0.70;;;0.70;;
10479;SDS011;12789;42.610;23.040;2022-09-20T00:53:54;0.87;;;0.87;;
10479;SDS011;12789;42.610;23.040;2022-09-20T00:56:25;0.77;;;0.77;;
10479;SDS011;12789;42.610;23.040;2022-09-20T00:58:59;1.43;;;1.07;;
10479;SDS011;12789;42.610;23.040;2022-09-20T01:01:30;0.80;;;0.80;;
10479;SDS011;12789;42.610;23.040;2022-09-20T01:03:58;1.20;;;1.10;;
10479;SDS011;12789;42.610;23.040;2022-09-20T01:06:26;0.90;;;0.90;;
10479;SDS011;12789;42.610;23.040;2022-09-20T01:08:55;1.10;;;1.10;;
10479;SDS011;12789;42.610;23.040;2022-09-20T01:11:26;1.43;;;1.10;;
10479;SDS011;12789;42.610;23.040;2022-09-20T01:13:54;1.00;;;1.00;;
10479;SDS011;12789;42.610;23.040;2022-09-20T01:16:23;0.80;;;0.80;;
10479;SDS011;12789;42.610;23.040;2022-09-20T01:18:51;2.33;;;0.90;;
10479;SDS011;12789;42.610;23.040;2022-09-20T01:21:19;0.90;;;0.90;;
10479;SDS011;12789;42.610;23.040;2022-09-20T01:23:48;1.03;;;1.03;;
10479;SDS011;12789;42.610;23.040;2022-09-20T01:29:43;2.17;;;1.07;;
10479;SDS011;12789;42.610;23.040;2022-09-20T01:32:22;1.53;;;1.07;;
10479;SDS011;12789;42.610;23.040;2022-09-20T01:34:56;1.13;;;1.00;;
10479;SDS011;12789;42.610;23.040;2022-09-20T01:37:27;1.10;;;1.10;;
10479;SDS011;12789;42.610;23.040;2022-09-20T01:40:05;1.20;;;1.20;;
10479;SDS011;12789;42.610;23.040;2022-09-20T01:42:42;1.00;;;1.00;;
10479;SDS011;12789;42.610;23.040;2022-09-20T01:45:17;1.03;;;1.00;;
10479;SDS011;12789;42.610;23.040;2022-09-20T01:47:50;1.50;;;1.40;;
10479;SDS011;12789;42.610;23.040;2022-09-20T01:50:24;1.30;;;1.30;;
10479;SDS011;12789;42.610;23.040;2022-09-20T01:56:02;1.90;;;1.40;;
10479;SDS011;12789;42.610;23.040;2022-09-20T01:58:51;1.77;;;1.30;;
10479;SDS011;12789;42.610;23.040;2022-09-20T02:07:36;1.70;;;1.63;;
10479;SDS011;12789;42.610;23.040;2022-09-20T02:10:26;2.60;;;1.70;;
10479;SDS011;12789;42.610;23.040;2022-09-20T02:13:14;1.70;;;1.60;;
10479;SDS011;12789;42.610;23.040;2022-09-20T02:21:53;2.20;;;2.10;;
10479;SDS011;12789;42.610;23.040;2022-09-20T02:24:38;2.20;;;2.00;;
10479;SDS011;12789;42.610;23.040;2022-09-20T02:27:13;1.97;;;1.87;;
10479;SDS011;12789;42.610;23.040;2022-09-20T02:29:53;2.20;;;1.90;;
10479;SDS011;12789;42.610;23.040;2022-09-20T02:32:34;1.90;;;1.80;;
10479;SDS011;12789;42.610;23.040;2022-09-20T02:35:21;1.80;;;1.70;;
10479;SDS011;12789;42.610;23.040;2022-09-20T02:38:00;1.50;;;1.40;;
10479;SDS011;12789;42.610;23.040;2022-09-20T02:43:50;1.90;;;1.80;;
10479;SDS011;12789;42.610;23.040;2022-09-20T02:46:24;2.97;;;2.17;;
10479;SDS011;12789;42.610;23.040;2022-09-20T02:49:03;2.10;;;2.00;;
10479;SDS011;12789;42.610;23.040;2022-09-20T02:51:39;2.33;;;2.23;;
10479;SDS011;12789;42.610;23.040;2022-09-20T02:54:15;3.50;;;2.10;;
10479;SDS011;12789;42.610;23.040;2022-09-20T02:56:53;2.20;;;2.10;;
10479;SDS011;12789;42.610;23.040;2022-09-20T02:59:28;3.57;;;2.27;;
10479;SDS011;12789;42.610;23.040;2022-09-20T03:02:04;2.60;;;2.40;;
10479;SDS011;12789;42.610;23.040;2022-09-20T03:04:44;2.47;;;2.17;;
10479;SDS011;12789;42.610;23.040;2022-09-20T03:07:24;2.33;;;2.23;;
10479;SDS011;12789;42.610;23.040;2022-09-20T03:10:00;2.60;;;2.40;;
10479;SDS011;12789;42.610;23.040;2022-09-20T03:12:41;2.70;;;2.50;;
10479;SDS011;12789;42.610;23.040;2022-09-20T03:15:21;2.77;;;2.57;;
10479;SDS011;12789;42.610;23.040;2022-09-20T03:17:59;2.70;;;2.60;;
10479;SDS011;12789;42.610;23.040;2022-09-20T03:20:34;2.70;;;2.50;;
10479;SDS011;12789;42.610;23.040;2022-09-20T03:23:17;2.57;;;2.40;;
10479;SDS011;12789;42.610;23.040;2022-09-20T03:26:01;2.63;;;2.43;;
10479;SDS011;12789;42.610;23.040;2022-09-20T03:28:48;2.70;;;2.50;;
10479;SDS011;12789;42.610;23.040;2022-09-20T03:31:26;2.83;;;2.67;;
10479;SDS011;12789;42.610;23.040;2022-09-20T03:34:04;2.80;;;2.60;;
10479;SDS011;12789;42.610;23.040;2022-09-20T03:36:48;4.30;;;3.00;;
10479;SDS011;12789;42.610;23.040;2022-09-20T03:42:38;3.33;;;3.00;;
10479;SDS011;12789;42.610;23.040;2022-09-20T03:45:18;4.23;;;3.40;;
10479;SDS011;12789;42.610;23.040;2022-09-20T03:48:01;3.80;;;3.50;;
10479;SDS011;12789;42.610;23.040;2022-09-20T03:50:45;3.97;;;3.57;;
10479;SDS011;12789;42.610;23.040;2022-09-20T03:56:33;4.53;;;3.20;;
10479;SDS011;12789;42.610;23.040;2022-09-20T03:59:23;6.30;;;3.37;;
10479;SDS011;12789;42.610;23.040;2022-09-20T04:02:13;5.33;;;3.50;;
10479;SDS011;12789;42.610;23.040;2022-09-20T04:04:54;6.13;;;3.10;;
10479;SDS011;12789;42.610;23.040;2022-09-20T04:07:27;3.33;;;3.10;;
10479;SDS011;12789;42.610;23.040;2022-09-20T04:10:12;4.63;;;4.17;;
10479;SDS011;12789;42.610;23.040;2022-09-20T04:12:55;7.33;;;4.10;;
10479;SDS011;12789;42.610;23.040;2022-09-20T04:15:34;9.17;;;4.67;;
10479;SDS011;12789;42.610;23.040;2022-09-20T04:18:09;7.40;;;4.33;;
10479;SDS011;12789;42.610;23.040;2022-09-20T04:20:44;7.10;;;5.27;;
10479;SDS011;12789;42.610;23.040;2022-09-20T04:23:20;11.50;;;5.20;;
10479;SDS011;12789;42.610;23.040;2022-09-20T04:25:56;10.20;;;4.77;;
10479;SDS011;12789;42.610;23.040;2022-09-20T04:28:27;8.43;;;5.50;;
10479;SDS011;12789;42.610;23.040;2022-09-20T04:31:02;5.57;;;4.70;;
10479;SDS011;12789;42.610;23.040;2022-09-20T04:33:39;10.60;;;5.00;;
10479;SDS011;12789;42.610;23.040;2022-09-20T04:36:13;7.53;;;4.47;;
10479;SDS011;12789;42.610;23.040;2022-09-20T04:38:56;8.77;;;4.80;;
10479;SDS011;12789;42.610;23.040;2022-09-20T04:44:43;5.80;;;4.77;;
10479;SDS011;12789;42.610;23.040;2022-09-20T04:56:51;9.07;;;6.00;;
10479;SDS011;12789;42.610;23.040;2022-09-20T04:59:38;11.67;;;6.30;;
10479;SDS011;12789;42.610;23.040;2022-09-20T05:02:25;9.73;;;5.77;;
10479;SDS011;12789;42.610;23.040;2022-09-20T05:05:25;7.60;;;5.70;;
10479;SDS011;12789;42.610;23.040;2022-09-20T05:17:13;8.93;;;5.50;;
10479;SDS011;12789;42.610;23.040;2022-09-20T05:19:57;13.00;;;7.20;;
10479;SDS011;12789;42.610;23.040;2022-09-20T05:26:02;11.20;;;6.77;;
10479;SDS011;12789;42.610;23.040;2022-09-20T05:28:37;8.97;;;6.70;;
10479;SDS011;12789;42.610;23.040;2022-09-20T05:31:16;9.10;;;6.87;;
10479;SDS011;12789;42.610;23.040;2022-09-20T05:33:52;8.93;;;6.37;;
10479;SDS011;12789;42.610;23.040;2022-09-20T05:36:28;16.67;;;6.47;;
10479;SDS011;12789;42.610;23.040;2022-09-20T05:39:03;12.13;;;6.33;;
10479;SDS011;12789;42.610;23.040;2022-09-20T05:41:44;9.90;;;6.40;;
10479;SDS011;12789;42.610;23.040;2022-09-20T05:44:21;12.80;;;6.30;;
10479;SDS011;12789;42.610;23.040;2022-09-20T05:46:58;11.30;;;6.23;;
10479;SDS011;12789;42.610;23.040;2022-09-20T05:49:42;5.30;;;4.77;;
10479;SDS011;12789;42.610;23.040;2022-09-20T05:52:23;6.37;;;4.50;;
10479;SDS011;12789;42.610;23.040;2022-09-20T05:55:10;4.50;;;4.00;;
10479;SDS011;12789;42.610;23.040;2022-09-20T05:57:49;4.93;;;3.83;;
10479;SDS011;12789;42.610;23.040;2022-09-20T06:00:42;5.10;;;3.63;;
10479;SDS011;12789;42.610;23.040;2022-09-20T06:03:17;4.70;;;3.83;;
10479;SDS011;12789;42.610;23.040;2022-09-20T06:05:54;4.67;;;3.80;;
10479;SDS011;12789;42.610;23.040;2022-09-20T06:08:42;5.50;;;3.27;;
10479;SDS011;12789;42.610;23.040;2022-09-20T06:11:30;4.30;;;3.90;;
10479;SDS011;12789;42.610;23.040;2022-09-20T06:14:20;5.20;;;3.77;;
10479;SDS011;12789;42.610;23.040;2022-09-20T06:17:01;3.20;;;2.20;;
10479;SDS011;12789;42.610;23.040;2022-09-20T06:19:41;4.60;;;3.70;;
10479;SDS011;12789;42.610;23.040;2022-09-20T06:22:14;4.00;;;3.70;;
10479;SDS011;12789;42.610;23.040;2022-09-20T06:24:45;17.53;;;10.27;;
10479;SDS011;12789;42.610;23.040;2022-09-20T06:27:15;5.07;;;4.47;;
10479;SDS011;12789;42.610;23.040;2022-09-20T06:29:48;7.00;;;5.83;;
10479;SDS011;12789;42.610;23.040;2022-09-20T06:32:19;3.17;;;2.97;;
10479;SDS011;12789;42.610;23.040;2022-09-20T06:34:47;3.53;;;2.37;;
10479;SDS011;12789;42.610;23.040;2022-09-20T06:37:22;3.17;;;2.90;;
10479;SDS011;12789;42.610;23.040;2022-09-20T06:40:29;1.20;;;1.10;;
10479;SDS011;12789;42.610;23.040;2022-09-20T06:43:19;1.23;;;0.70;;
10479;SDS011;12789;42.610;23.040;2022-09-20T06:45:46;0.87;;;0.80;;
10479;SDS011;12789;42.610;23.040;2022-09-20T06:48:13;0.90;;;0.90;;
10479;SDS011;12789;42.610;23.040;2022-09-20T06:50:41;1.10;;;0.60;;
10479;SDS011;12789;42.610;23.040;2022-09-20T06:53:10;0.57;;;0.53;;
10479;SDS011;12789;42.610;23.040;2022-09-20T06:55:41;1.73;;;1.63;;
10479;SDS011;12789;42.610;23.040;2022-09-20T06:58:10;0.83;;;0.83;;
10479;SDS011;12789;42.610;23.040;2022-09-20T07:00:37;0.93;;;0.80;;
10479;SDS011;12789;42.610;23.040;2022-09-20T07:03:05;0.80;;;0.80;;
10479;SDS011;12789;42.610;23.040;2022-09-20T07:05:33;1.20;;;0.70;;
10479;SDS011;12789;42.610;23.040;2022-09-20T07:08:01;1.23;;;0.60;;
10479;SDS011;12789;42.610;23.040;2022-09-20T07:10:29;0.70;;;0.70;;
10479;SDS011;12789;42.610;23.040;2022-09-20T07:12:56;2.23;;;0.83;;
10479;SDS011;12789;42.610;23.040;2022-09-20T07:15:24;3.33;;;0.80;;
10479;SDS011;12789;42.610;23.040;2022-09-20T07:17:52;3.80;;;1.03;;
10479;SDS011;12789;42.610;23.040;2022-09-20T07:20:20;3.33;;;1.37;;
10479;SDS011;12789;42.610;23.040;2022-09-20T07:22:47;1.20;;;1.10;;
10479;SDS011;12789;42.610;23.040;2022-09-20T07:25:16;1.50;;;0.60;;
10479;SDS011;12789;42.610;23.040;2022-09-20T07:27:43;0.60;;;0.60;;
10479;SDS011;12789;42.610;23.040;2022-09-20T07:30:11;1.13;;;0.60;;
10479;SDS011;12789;42.610;23.040;2022-09-20T07:32:38;1.17;;;0.60;;
10479;SDS011;12789;42.610;23.040;2022-09-20T07:35:06;2.63;;;0.67;;
10479;SDS011;12789;42.610;23.040;2022-09-20T07:37:33;0.50;;;0.50;;
10479;SDS011;12789;42.610;23.040;2022-09-20T07:40:00;1.03;;;0.60;;
10479;SDS011;12789;42.610;23.040;2022-09-20T07:42:29;1.53;;;0.60;;
10479;SDS011;12789;42.610;23.040;2022-09-20T07:44:56;0.60;;;0.60;;
10479;SDS011;12789;42.610;23.040;2022-09-20T07:47:23;1.63;;;0.60;;
10479;SDS011;12789;42.610;23.040;2022-09-20T07:49:51;1.27;;;0.80;;
10479;SDS011;12789;42.610;23.040;2022-09-20T07:52:17;1.43;;;0.70;;
10479;SDS011;12789;42.610;23.040;2022-09-20T07:54:44;6.60;;;0.70;;
10479;SDS011;12789;42.610;23.040;2022-09-20T07:57:11;0.63;;;0.60;;
10479;SDS011;12789;42.610;23.040;2022-09-20T07:59:39;2.10;;;0.97;;
10479;SDS011;12789;42.610;23.040;2022-09-20T08:02:07;1.00;;;0.70;;
10479;SDS011;12789;42.610;23.040;2022-09-20T08:04:39;0.60;;;0.30;;
10479;SDS011;12789;42.610;23.040;2022-09-20T08:07:06;0.40;;;0.40;;
10479;SDS011;12789;42.610;23.040;2022-09-20T08:09:32;0.87;;;0.37;;
10479;SDS011;12789;42.610;23.040;2022-09-20T08:11:59;0.67;;;0.40;;
10479;SDS011;12789;42.610;23.040;2022-09-20T08:14:26;3.80;;;0.60;;
10479;SDS011;12789;42.610;23.040;2022-09-20T08:16:54;2.47;;;0.90;;
10479;SDS011;12789;42.610;23.040;2022-09-20T08:19:22;1.20;;;0.50;;
10479;SDS011;12789;42.610;23.040;2022-09-20T08:21:49;0.40;;;0.40;;
10479;SDS011;12789;42.610;23.040;2022-09-20T08:24:18;0.53;;;0.53;;
10479;SDS011;12789;42.610;23.040;2022-09-20T08:26:44;1.37;;;0.80;;
10479;SDS011;12789;42.610;23.040;2022-09-20T08:29:12;1.33;;;0.50;;
10479;SDS011;12789;42.610;23.040;2022-09-20T08:31:40;2.43;;;0.60;;
10479;SDS011;12789;42.610;23.040;2022-09-20T08:34:09;1.10;;;0.37;;
10479;SDS011;12789;42.610;23.040;2022-09-20T08:36:39;0.30;;;0.30;;
10479;SDS011;12789;42.610;23.040;2022-09-20T08:39:09;0.33;;;0.33;;
10479;SDS011;12789;42.610;23.040;2022-09-20T08:41:38;0.77;;;0.40;;
10479;SDS011;12789;42.610;23.040;2022-09-20T08:44:10;0.73;;;0.50;;
10479;SDS011;12789;42.610;23.040;2022-09-20T08:46:42;2.15;;;0.40;;
10479;SDS011;12789;42.610;23.040;2022-09-20T08:49:16;0.90;;;0.43;;
10479;SDS011;12789;42.610;23.040;2022-09-20T08:51:50;0.30;;;0.30;;
10479;SDS011;12789;42.610;23.040;2022-09-20T08:54:17;0.52;;;0.40;;
10479;SDS011;12789;42.610;23.040;2022-09-20T08:56:44;0.38;;;0.15;;
10479;SDS011;12789;42.610;23.040;2022-09-20T08:59:14;0.30;;;0.30;;
10479;SDS011;12789;42.610;23.040;2022-09-20T09:01:44;0.50;;;0.43;;
10479;SDS011;12789;42.610;23.040;2022-09-20T09:04:13;0.35;;;0.35;;
10479;SDS011;12789;42.610;23.040;2022-09-20T09:06:43;1.35;;;0.22;;
10479;SDS011;12789;42.610;23.040;2022-09-20T09:09:17;0.40;;;0.40;;
10479;SDS011;12789;42.610;23.040;2022-09-20T09:11:47;0.30;;;0.30;;
10479;SDS011;12789;42.610;23.040;2022-09-20T09:14:16;2.72;;;0.45;;
10479;SDS011;12789;42.610;23.040;2022-09-20T09:17:22;2.28;;;0.40;;
10479;SDS011;12789;42.610;23.040;2022-09-20T09:19:54;0.30;;;0.30;;
10479;SDS011;12789;42.610;23.040;2022-09-20T09:22:23;0.20;;;0.20;;
10479;SDS011;12789;42.610;23.040;2022-09-20T09:25:12;0.73;;;0.40;;
10479;SDS011;12789;42.610;23.040;2022-09-20T09:27:48;1.63;;;0.38;;
10479;SDS011;12789;42.610;23.040;2022-09-20T09:30:20;0.30;;;0.30;;
10479;SDS011;12789;42.610;23.040;2022-09-20T09:32:49;1.33;;;0.60;;
10479;SDS011;12789;42.610;23.040;2022-09-20T09:35:22;0.95;;;0.70;;
10479;SDS011;12789;42.610;23.040;2022-09-20T09:37:52;0.45;;;0.45;;
10479;SDS011;12789;42.610;23.040;2022-09-20T09:40:20;0.40;;;0.40;;
10479;SDS011;12789;42.610;23.040;2022-09-20T09:42:48;0.35;;;0.28;;
10479;SDS011;12789;42.610;23.040;2022-09-20T09:45:25;2.20;;;1.13;;
10479;SDS011;12789;42.610;23.040;2022-09-20T09:47:54;0.90;;;0.80;;
10479;SDS011;12789;42.610;23.040;2022-09-20T09:50:25;1.70;;;1.00;;
10479;SDS011;12789;42.610;23.040;2022-09-20T09:52:58;1.27;;;0.73;;
10479;SDS011;12789;42.610;23.040;2022-09-20T09:55:29;1.05;;;0.30;;
10479;SDS011;12789;42.610;23.040;2022-09-20T09:58:19;0.70;;;0.70;;
10479;SDS011;12789;42.610;23.040;2022-09-20T10:00:56;0.15;;;0.15;;
10479;SDS011;12789;42.610;23.040;2022-09-20T10:03:44;0.52;;;0.45;;
10479;SDS011;12789;42.610;23.040;2022-09-20T10:06:22;1.58;;;1.48;;
10479;SDS011;12789;42.610;23.040;2022-09-20T10:09:03;0.50;;;0.50;;
10479;SDS011;12789;42.610;23.040;2022-09-20T10:11:42;2.45;;;0.90;;
10479;SDS011;12789;42.610;23.040;2022-09-20T10:14:25;0.95;;;0.60;;
10479;SDS011;12789;42.610;23.040;2022-09-20T10:17:18;1.55;;;0.82;;
10479;SDS011;12789;42.610;23.040;2022-09-20T10:19:59;1.45;;;1.35;;
10479;SDS011;12789;42.610;23.040;2022-09-20T10:22:40;2.15;;;0.70;;
10479;SDS011;12789;42.610;23.040;2022-09-20T10:25:17;0.70;;;0.68;;
10479;SDS011;12789;42.610;23.040;2022-09-20T10:27:55;0.55;;;0.55;;
10479;SDS011;12789;42.610;23.040;2022-09-20T10:30:35;1.33;;;0.73;;
10479;SDS011;12789;42.610;23.040;2022-09-20T10:33:15;0.47;;;0.40;;
10479;SDS011;12789;42.610;23.040;2022-09-20T10:35:54;0.90;;;0.40;;
10479;SDS011;12789;42.610;23.040;2022-09-20T10:38:31;1.23;;;0.30;;
10479;SDS011;12789;42.610;23.040;2022-09-20T10:41:12;0.82;;;0.82;;
10479;SDS011;12789;42.610;23.040;2022-09-20T10:44:10;1.05;;;0.85;;
10479;SDS011;12789;42.610;23.040;2022-09-20T10:46:48;3.15;;;0.73;;
10479;SDS011;12789;42.610;23.040;2022-09-20T10:49:26;2.17;;;0.50;;
10479;SDS011;12789;42.610;23.040;2022-09-20T10:52:03;0.60;;;0.60;;
10479;SDS011;12789;42.610;23.040;2022-09-20T10:54:45;0.80;;;0.40;;
10479;SDS011;12789;42.610;23.040;2022-09-20T10:57:42;0.40;;;0.40;;
10479;SDS011;12789;42.610;23.040;2022-09-20T11:00:33;0.57;;;0.57;;
10479;SDS011;12789;42.610;23.040;2022-09-20T11:03:13;0.70;;;0.63;;
10479;SDS011;12789;42.610;23.040;2022-09-20T11:05:52;1.45;;;0.57;;
10479;SDS011;12789;42.610;23.040;2022-09-20T11:08:28;0.57;;;0.30;;
10479;SDS011;12789;42.610;23.040;2022-09-20T11:11:03;0.47;;;0.40;;
10479;SDS011;12789;42.610;23.040;2022-09-20T11:13:36;1.75;;;0.50;;
10479;SDS011;12789;42.610;23.040;2022-09-20T11:16:08;1.52;;;1.42;;
10479;SDS011;12789;42.610;23.040;2022-09-20T11:18:42;2.53;;;2.33;;
10479;SDS011;12789;42.610;23.040;2022-09-20T11:21:16;1.17;;;0.45;;
10479;SDS011;12789;42.610;23.040;2022-09-20T11:23:49;0.30;;;0.30;;
10479;SDS011;12789;42.610;23.040;2022-09-20T11:26:23;0.30;;;0.30;;
10479;SDS011;12789;42.610;23.040;2022-09-20T11:28:59;0.40;;;0.40;;
10479;SDS011;12789;42.610;23.040;2022-09-20T11:31:34;0.30;;;0.30;;
10479;SDS011;12789;42.610;23.040;2022-09-20T11:34:07;1.08;;;0.30;;
10479;SDS011;12789;42.610;23.040;2022-09-20T11:36:41;0.50;;;0.50;;
10479;SDS011;12789;42.610;23.040;2022-09-20T11:39:17;0.60;;;0.43;;
10479;SDS011;12789;42.610;23.040;2022-09-20T11:41:48;0.50;;;0.43;;
10479;SDS011;12789;42.610;23.040;2022-09-20T11:44:19;0.55;;;0.45;;
10479;SDS011;12789;42.610;23.040;2022-09-20T11:46:48;0.57;;;0.47;;
10479;SDS011;12789;42.610;23.040;2022-09-20T11:49:19;2.28;;;0.60;;
10479;SDS011;12789;42.610;23.040;2022-09-20T11:52:02;0.43;;;0.43;;
10479;SDS011;12789;42.610;23.040;2022-09-20T11:54:47;0.98;;;0.47;;
10479;SDS011;12789;42.610;23.040;2022-09-20T11:57:24;2.05;;;0.60;;
10479;SDS011;12789;42.610;23.040;2022-09-20T11:59:51;0.50;;;0.50;;
10479;SDS011;12789;42.610;23.040;2022-09-20T12:02:22;0.63;;;0.45;;
10479;SDS011;12789;42.610;23.040;2022-09-20T12:04:55;2.38;;;0.60;;
10479;SDS011;12789;42.610;23.040;2022-09-20T12:07:24;3.15;;;0.85;;
10479;SDS011;12789;42.610;23.040;2022-09-20T12:09:57;1.10;;;0.57;;
10479;SDS011;12789;42.610;23.040;2022-09-20T12:12:31;0.30;;;0.30;;
10479;SDS011;12789;42.610;23.040;2022-09-20T12:15:03;2.47;;;0.55;;
10479;SDS011;12789;42.610;23.040;2022-09-20T12:26:35;0.10;;;0.10;;
10479;SDS011;12789;42.610;23.040;2022-09-20T12:38:52;1.65;;;0.43;;
10479;SDS011;12789;42.610;23.040;2022-09-20T12:41:23;0.70;;;0.55;;
10479;SDS011;12789;42.610;23.040;2022-09-20T12:44:00;2.88;;;0.63;;
10479;SDS011;12789;42.610;23.040;2022-09-20T12:46:34;2.08;;;0.50;;
10479;SDS011;12789;42.610;23.040;2022-09-20T12:49:16;1.10;;;0.82;;
10479;SDS011;12789;42.610;23.040;2022-09-20T12:52:01;0.32;;;0.25;;
10479;SDS011;12789;42.610;23.040;2022-09-20T12:54:50;0.85;;;0.40;;
10479;SDS011;12789;42.610;23.040;2022-09-20T12:57:24;1.35;;;0.30;;
10479;SDS011;12789;42.610;23.040;2022-09-20T12:59:56;0.65;;;0.30;;
10479;SDS011;12789;42.610;23.040;2022-09-20T13:02:42;0.30;;;0.30;;
10479;SDS011;12789;42.610;23.040;2022-09-20T13:05:31;0.52;;;0.20;;
10479;SDS011;12789;42.610;23.040;2022-09-20T13:08:01;1.00;;;0.70;;
10479;SDS011;12789;42.610;23.040;2022-09-20T13:10:33;0.55;;;0.40;;
10479;SDS011;12789;42.610;23.040;2022-09-20T13:13:14;0.30;;;0.30;;
10479;SDS011;12789;42.610;23.040;2022-09-20T13:15:51;1.63;;;0.47;;
10479;SDS011;12789;42.610;23.040;2022-09-20T13:18:19;0.38;;;0.32;;
10479;SDS011;12789;42.610;23.040;2022-09-20T13:20:50;0.20;;;0.20;;
10479;SDS011;12789;42.610;23.040;2022-09-20T13:23:20;0.20;;;0.20;;
10479;SDS011;12789;42.610;23.040;2022-09-20T13:25:51;5.07;;;0.30;;
10479;SDS011;12789;42.610;23.040;2022-09-20T13:28:32;0.30;;;0.30;;
10479;SDS011;12789;42.610;23.040;2022-09-20T13:31:24;1.08;;;0.50;;
10479;SDS011;12789;42.610;23.040;2022-09-20T13:34:11;0.65;;;0.50;;
10479;SDS011;12789;42.610;23.040;2022-09-20T13:36:41;0.47;;;0.40;;
10479;SDS011;12789;42.610;23.040;2022-09-20T13:39:18;0.47;;;0.45;;
10479;SDS011;12789;42.610;23.040;2022-09-20T13:41:49;0.20;;;0.20;;
10479;SDS011;12789;42.610;23.040;2022-09-20T13:44:17;2.22;;;0.40;;
10479;SDS011;12789;42.610;23.040;2022-09-20T13:46:45;0.30;;;0.30;;
10479;SDS011;12789;42.610;23.040;2022-09-20T13:49:13;0.43;;;0.40;;
10479;SDS011;12789;42.610;23.040;2022-09-20T13:51:46;2.25;;;0.60;;
10479;SDS011;12789;42.610;23.040;2022-09-20T13:54:18;0.65;;;0.40;;
10479;SDS011;12789;42.610;23.040;2022-09-20T13:56:50;0.63;;;0.47;;
10479;SDS011;12789;42.610;23.040;2022-09-20T13:59:17;0.50;;;0.50;;
10479;SDS011;12789;42.610;23.040;2022-09-20T14:01:47;2.33;;;0.40;;
10479;SDS011;12789;42.610;23.040;2022-09-20T14:04:16;1.85;;;0.30;;
10479;SDS011;12789;42.610;23.040;2022-09-20T14:06:47;0.25;;;0.22;;
10479;SDS011;12789;42.610;23.040;2022-09-20T14:09:17;5.70;;;0.43;;
10479;SDS011;12789;42.610;23.040;2022-09-20T14:11:47;0.50;;;0.30;;
10479;SDS011;12789;42.610;23.040;2022-09-20T14:14:14;0.32;;;0.32;;
10479;SDS011;12789;42.610;23.040;2022-09-20T14:16:43;0.25;;;0.25;;
10479;SDS011;12789;42.610;23.040;2022-09-20T14:19:13;0.77;;;0.32;;
10479;SDS011;12789;42.610;23.040;2022-09-20T14:21:43;0.20;;;0.20;;
10479;SDS011;12789;42.610;23.040;2022-09-20T14:24:28;2.65;;;0.60;;
10479;SDS011;12789;42.610;23.040;2022-09-20T14:29:46;4.05;;;0.93;;
10479;SDS011;12789;42.610;23.040;2022-09-20T14:32:23;2.40;;;0.50;;
10479;SDS011;12789;42.610;23.040;2022-09-20T14:34:57;0.88;;;0.38;;
10479;SDS011;12789;42.610;23.040;2022-09-20T14:37:27;0.40;;;0.40;;
10479;SDS011;12789;42.610;23.040;2022-09-20T14:39:59;2.47;;;0.40;;
10479;SDS011;12789;42.610;23.040;2022-09-20T14:42:29;2.03;;;0.30;;
10479;SDS011;12789;42.610;23.040;2022-09-20T14:44:59;3.28;;;0.55;;
10479;SDS011;12789;42.610;23.040;2022-09-20T14:47:28;0.95;;;0.38;;
10479;SDS011;12789;42.610;23.040;2022-09-20T14:50:02;4.70;;;0.50;;
10479;SDS011;12789;42.610;23.040;2022-09-20T14:52:38;0.43;;;0.43;;
10479;SDS011;12789;42.610;23.040;2022-09-20T14:55:23;1.67;;;0.20;;
10479;SDS011;12789;42.610;23.040;2022-09-20T14:57:59;0.60;;;0.50;;
10479;SDS011;12789;42.610;23.040;2022-09-20T15:00:28;1.08;;;0.47;;
10479;SDS011;12789;42.610;23.040;2022-09-20T15:03:00;2.72;;;0.60;;
10479;SDS011;12789;42.610;23.040;2022-09-20T15:05:29;2.22;;;0.50;;
10479;SDS011;12789;42.610;23.040;2022-09-20T15:07:57;3.42;;;0.60;;
10479;SDS011;12789;42.610;23.040;2022-09-20T15:10:26;1.98;;;0.45;;
10479;SDS011;12789;42.610;23.040;2022-09-20T15:12:53;7.03;;;2.45;;
10479;SDS011;12789;42.610;23.040;2022-09-20T15:15:20;0.85;;;0.30;;
10479;SDS011;12789;42.610;23.040;2022-09-20T15:17:47;7.47;;;0.60;;
10479;SDS011;12789;42.610;23.040;2022-09-20T15:20:15;1.20;;;1.00;;
10479;SDS011;12789;42.610;23.040;2022-09-20T15:22:45;1.23;;;0.60;;
10479;SDS011;12789;42.610;23.040;2022-09-20T15:25:13;0.77;;;0.70;;
10479;SDS011;12789;42.610;23.040;2022-09-20T15:27:43;0.88;;;0.88;;
10479;SDS011;12789;42.610;23.040;2022-09-20T15:30:12;0.50;;;0.50;;
10479;SDS011;12789;42.610;23.040;2022-09-20T15:32:41;1.50;;;0.60;;
10479;SDS011;12789;42.610;23.040;2022-09-20T15:35:09;1.00;;;0.70;;
10479;SDS011;12789;42.610;23.040;2022-09-20T15:37:36;2.63;;;0.52;;
10479;SDS011;12789;42.610;23.040;2022-09-20T15:40:04;0.50;;;0.50;;
10479;SDS011;12789;42.610;23.040;2022-09-20T15:42:32;0.80;;;0.65;;
10479;SDS011;12789;42.610;23.040;2022-09-20T15:45:04;1.60;;;1.00;;
10479;SDS011;12789;42.610;23.040;2022-09-20T15:47:33;3.63;;;0.65;;
10479;SDS011;12789;42.610;23.040;2022-09-20T15:50:01;3.53;;;1.33;;
10479;SDS011;12789;42.610;23.040;2022-09-20T15:52:31;1.05;;;0.60;;
10479;SDS011;12789;42.610;23.040;2022-09-20T15:54:58;1.25;;;0.80;;
10479;SDS011;12789;42.610;23.040;2022-09-20T15:57:27;2.28;;;1.13;;
10479;SDS011;12789;42.610;23.040;2022-09-20T15:59:55;3.72;;;1.15;;
10479;SDS011;12789;42.610;23.040;2022-09-20T16:02:24;4.18;;;1.10;;
10479;SDS011;12789;42.610;23.040;2022-09-20T16:04:51;2.15;;;1.02;;
10479;SDS011;12789;42.610;23.040;2022-09-20T16:07:20;3.08;;;2.83;;
10479;SDS011;12789;42.610;23.040;2022-09-20T16:09:50;1.67;;;1.25;;
10479;SDS011;12789;42.610;23.040;2022-09-20T16:12:18;5.38;;;3.33;;
10479;SDS011;12789;42.610;23.040;2022-09-20T16:14:45;2.40;;;1.63;;
10479;SDS011;12789;42.610;23.040;2022-09-20T16:17:12;3.40;;;2.25;;
10479;SDS011;12789;42.610;23.040;2022-09-20T16:19:41;1.45;;;1.25;;
10479;SDS011;12789;42.610;23.040;2022-09-20T16:22:12;1.20;;;1.10;;
10479;SDS011;12789;42.610;23.040;2022-09-20T16:24:40;1.58;;;1.30;;
10479;SDS011;12789;42.610;23.040;2022-09-20T16:27:06;4.57;;;3.13;;
10479;SDS011;12789;42.610;23.040;2022-09-20T16:29:35;5.30;;;1.65;;